Time;durP1;ratioP1;P1;durP2;ratioP2;P2;SDS_P1;SDS_P2;PMS_P1;PMS_P2;Temp;Humidity;BMP_temperature;BMP_pressure;BME280_temperature;BME280_humidity;BME280_pressure;Samples;Min_cycle;Max_cycle;Signal;HPM_P1;HPM_P2
2021/01/07 00:00:12;;;;;;;23.97;18.03;;;1.90;99.90;;;;;;5039688;28;20178;-90
2021/01/07 00:02:37;;;;;;;23.60;17.20;;;1.80;99.90;;;;;;5011617;28;20193;-90
2021/01/07 00:05:05;;;;;;;21.17;16.97;;;1.90;99.90;;;;;;5004133;28;20194;-90
2021/01/07 00:07:35;;;;;;;24.30;17.60;;;2.00;99.90;;;;;;5004033;28;20309;-89
2021/01/07 00:10:06;;;;;;;24.10;18.73;;;1.90;99.90;;;;;;5004497;28;20197;-90
2021/01/07 00:12:37;;;;;;;27.63;18.97;;;1.90;99.90;;;;;;5010636;28;20170;-90
2021/01/07 00:15:04;;;;;;;28.10;19.33;;;1.80;99.90;;;;;;5024146;28;20236;-89
2021/01/07 00:17:30;;;;;;;28.50;19.40;;;1.90;99.90;;;;;;5040253;28;20186;-89
2021/01/07 00:19:56;;;;;;;27.57;19.07;;;1.90;99.90;;;;;;5025341;28;20255;-91
2021/01/07 00:22:21;;;;;;;25.70;18.33;;;2.00;99.90;;;;;;5024540;28;20178;-90
2021/01/07 00:24:47;;;;;;;27.77;20.60;;;2.00;99.90;;;;;;5024347;28;20184;-90
2021/01/07 00:27:13;;;;;;;25.67;18.93;;;1.90;99.90;;;;;;5024675;28;20193;-90
2021/01/07 00:29:38;;;;;;;26.77;18.57;;;2.00;99.90;;;;;;5023300;28;20209;-90
2021/01/07 00:32:04;;;;;;;24.97;18.37;;;2.00;99.90;;;;;;5008345;28;20189;-90
2021/01/07 00:34:30;;;;;;;24.47;17.07;;;2.10;99.90;;;;;;5022070;28;20198;-91
2021/01/07 00:36:57;;;;;;;27.13;18.97;;;2.20;99.90;;;;;;5024567;28;20228;-90
2021/01/07 00:39:23;;;;;;;23.67;18.07;;;2.30;99.90;;;;;;5024580;28;20201;-90
2021/01/07 00:41:53;;;;;;;26.90;18.63;;;2.40;99.90;;;;;;5006758;28;20567;-90
2021/01/07 00:44:19;;;;;;;24.97;18.30;;;2.40;99.90;;;;;;5025923;28;20193;-90
2021/01/07 00:46:45;;;;;;;30.10;20.13;;;2.30;99.90;;;;;;4990527;28;20568;-91
2021/01/07 00:49:11;;;;;;;27.03;18.83;;;2.20;99.90;;;;;;5007355;28;20205;-89
2021/01/07 00:51:36;;;;;;;30.17;19.43;;;2.30;99.90;;;;;;5025202;28;20198;-90
2021/01/07 00:54:02;;;;;;;26.33;19.77;;;2.20;99.90;;;;;;5006174;28;20496;-90
2021/01/07 00:56:33;;;;;;;29.77;20.60;;;2.30;99.90;;;;;;5009261;28;20217;-90
2021/01/07 00:58:59;;;;;;;27.93;20.70;;;2.30;99.90;;;;;;5028148;28;20170;-90
2021/01/07 01:01:24;;;;;;;32.20;21.03;;;2.30;99.90;;;;;;5028297;28;20192;-90
2021/01/07 01:03:50;;;;;;;29.50;20.97;;;2.20;99.90;;;;;;5028242;28;20196;-90
2021/01/07 01:06:16;;;;;;;30.63;21.80;;;2.10;99.90;;;;;;5025015;28;20210;-90
2021/01/07 01:08:41;;;;;;;32.93;22.87;;;2.10;99.90;;;;;;5023385;28;20568;-90
2021/01/07 01:11:07;;;;;;;37.97;23.87;;;2.00;99.90;;;;;;5005566;28;20193;-90
2021/01/07 01:13:33;;;;;;;31.37;21.60;;;2.00;99.90;;;;;;5022964;28;20185;-89
2021/01/07 01:15:58;;;;;;;30.13;21.20;;;2.00;99.90;;;;;;5007464;28;20262;-90
2021/01/07 01:18:24;;;;;;;32.53;21.97;;;2.10;99.90;;;;;;4992946;28;20705;-90
2021/01/07 01:20:50;;;;;;;32.87;22.87;;;2.20;99.90;;;;;;5026322;28;20657;-90
2021/01/07 01:23:15;;;;;;;33.17;23.60;;;2.10;99.90;;;;;;5008163;28;20380;-91
2021/01/07 01:25:41;;;;;;;37.43;22.57;;;2.00;99.90;;;;;;5012028;28;20213;-90
2021/01/07 01:28:07;;;;;;;35.67;23.83;;;1.90;99.90;;;;;;5024646;28;20236;-90
2021/01/07 01:30:32;;;;;;;35.57;22.97;;;1.90;99.90;;;;;;5025007;28;20185;-90
2021/01/07 01:32:58;;;;;;;38.13;25.37;;;1.90;99.90;;;;;;5026935;28;20188;-90
2021/01/07 01:35:23;;;;;;;37.83;23.27;;;1.90;99.90;;;;;;5026067;28;20197;-90
2021/01/07 01:37:49;;;;;;;39.27;24.30;;;1.90;99.90;;;;;;5024928;28;20182;-90
2021/01/07 01:40:15;;;;;;;36.63;23.77;;;1.90;99.90;;;;;;5025566;28;20174;-89
2021/01/07 01:42:41;;;;;;;33.93;21.87;;;1.90;99.90;;;;;;5025645;28;20174;-89
2021/01/07 01:45:07;;;;;;;37.80;23.77;;;1.90;99.90;;;;;;5024400;28;20277;-89
2021/01/07 01:47:33;;;;;;;35.03;22.80;;;1.90;99.90;;;;;;5035682;28;20245;-91
2021/01/07 01:49:59;;;;;;;30.97;21.53;;;2.00;99.90;;;;;;5029058;28;20178;-88
2021/01/07 01:52:26;;;;;;;32.70;21.53;;;2.10;99.90;;;;;;5027955;28;20178;-89
2021/01/07 01:54:52;;;;;;;32.10;21.80;;;2.10;99.90;;;;;;5027451;28;20184;-88
2021/01/07 01:57:18;;;;;;;34.73;22.63;;;2.10;99.90;;;;;;5009957;28;20177;-88
2021/01/07 01:59:45;;;;;;;30.33;21.23;;;2.20;99.90;;;;;;5027671;28;20186;-88
2021/01/07 02:02:13;;;;;;;35.70;23.03;;;2.20;99.90;;;;;;5027814;28;20190;-89
2021/01/07 02:04:39;;;;;;;32.97;20.77;;;2.20;99.90;;;;;;5027123;28;20180;-89
2021/01/07 02:07:07;;;;;;;34.20;21.50;;;2.20;99.90;;;;;;5025542;28;20209;-89
2021/01/07 02:09:34;;;;;;;31.70;21.60;;;2.10;99.90;;;;;;5026792;28;20221;-90
2021/01/07 02:12:00;;;;;;;35.80;23.27;;;2.10;99.90;;;;;;5027408;28;20192;-89
2021/01/07 02:14:26;;;;;;;36.23;22.63;;;2.10;99.90;;;;;;5027470;28;20186;-89
2021/01/07 02:16:53;;;;;;;30.67;21.37;;;2.00;99.90;;;;;;5026212;28;20677;-89
2021/01/07 02:19:19;;;;;;;32.13;22.47;;;2.00;99.90;;;;;;5026953;28;20585;-89
2021/01/07 02:21:45;;;;;;;33.33;24.33;;;2.00;99.90;;;;;;5027050;28;20196;-88
2021/01/07 02:24:13;;;;;;;32.90;23.23;;;2.00;99.90;;;;;;5027096;28;20224;-89
2021/01/07 02:26:41;;;;;;;32.10;22.93;;;1.90;99.90;;;;;;5025822;28;20213;-90
2021/01/07 02:29:07;;;;;;;32.03;21.77;;;2.00;99.90;;;;;;5026181;28;20205;-89
2021/01/07 02:31:33;;;;;;;33.50;22.83;;;2.00;99.90;;;;;;5026045;28;20209;-89
2021/01/07 02:33:59;;;;;;;35.10;23.33;;;1.90;99.90;;;;;;5026450;28;20190;-89
2021/01/07 02:36:24;;;;;;;31.63;21.90;;;1.90;99.90;;;;;;5008921;28;20201;-89
2021/01/07 02:38:50;;;;;;;34.83;22.53;;;2.00;99.90;;;;;;5009680;28;20212;-90
2021/01/07 02:41:16;;;;;;;32.33;22.53;;;2.00;99.90;;;;;;5026089;28;20192;-89
2021/01/07 02:43:41;;;;;;;36.53;22.53;;;2.00;99.90;;;;;;5025982;28;20611;-89
2021/01/07 02:46:07;;;;;;;32.57;22.97;;;1.90;99.90;;;;;;5026792;28;20221;-89
2021/01/07 02:48:33;;;;;;;33.00;22.23;;;1.90;99.90;;;;;;5025753;28;20201;-89
2021/01/07 02:50:59;;;;;;;30.27;20.93;;;2.00;99.90;;;;;;5025815;28;20177;-89
2021/01/07 02:53:26;;;;;;;33.47;22.47;;;2.10;99.90;;;;;;5026306;28;20174;-90
2021/01/07 02:55:51;;;;;;;31.17;21.17;;;2.10;99.90;;;;;;5026214;28;20228;-88
2021/01/07 02:58:17;;;;;;;33.37;21.50;;;2.00;99.90;;;;;;5026506;28;20185;-88
2021/01/07 03:00:43;;;;;;;33.73;21.93;;;2.10;99.90;;;;;;5026427;28;20197;-89
2021/01/07 03:03:08;;;;;;;38.63;24.33;;;2.00;99.90;;;;;;5023176;28;20216;-89
2021/01/07 03:05:34;;;;;;;35.37;23.77;;;2.00;99.90;;;;;;5023371;28;20578;-90
2021/01/07 03:08:00;;;;;;;36.07;24.07;;;2.00;99.90;;;;;;5006344;28;20219;-89
2021/01/07 03:10:26;;;;;;;32.63;23.90;;;2.00;99.90;;;;;;5023439;28;20216;-88
2021/01/07 03:12:51;;;;;;;40.87;23.83;;;1.90;99.90;;;;;;5023302;28;20189;-89
2021/01/07 03:15:17;;;;;;;36.33;24.60;;;2.00;99.90;;;;;;5023561;28;20210;-89
2021/01/07 03:17:45;;;;;;;40.00;23.80;;;1.90;99.90;;;;;;5024339;28;20173;-89
2021/01/07 03:20:12;;;;;;;35.83;24.30;;;1.80;99.90;;;;;;5023401;28;20189;-88
2021/01/07 03:22:40;;;;;;;40.33;24.00;;;1.90;99.90;;;;;;5024938;28;20185;-89
2021/01/07 03:25:07;;;;;;;35.07;24.23;;;2.00;99.90;;;;;;5024342;28;20190;-89
2021/01/07 03:27:34;;;;;;;36.27;24.27;;;1.90;99.90;;;;;;5024574;28;20173;-89
2021/01/07 03:30:00;;;;;;;35.57;23.93;;;1.90;99.90;;;;;;5023421;28;20281;-88
2021/01/07 03:32:26;;;;;;;37.33;24.87;;;2.00;99.90;;;;;;5024639;28;20645;-89
2021/01/07 03:34:52;;;;;;;40.00;24.57;;;1.80;99.90;;;;;;5007821;28;20221;-89
2021/01/07 03:37:18;;;;;;;36.93;24.73;;;1.90;99.90;;;;;;5024856;28;20707;-89
2021/01/07 03:39:44;;;;;;;38.77;24.83;;;1.70;99.90;;;;;;5024834;28;20182;-89
2021/01/07 03:42:09;;;;;;;37.70;24.93;;;1.80;99.90;;;;;;5024398;28;20240;-89
2021/01/07 03:44:35;;;;;;;36.93;23.93;;;1.90;99.90;;;;;;5007761;28;20188;-90
2021/01/07 03:47:01;;;;;;;36.10;24.60;;;1.90;99.90;;;;;;5024722;28;20713;-89
2021/01/07 03:49:26;;;;;;;37.10;23.47;;;1.90;99.90;;;;;;5024939;28;20206;-89
2021/01/07 03:51:52;;;;;;;35.03;23.40;;;2.00;99.90;;;;;;5024160;28;20174;-89
2021/01/07 03:54:18;;;;;;;34.67;24.47;;;1.90;99.90;;;;;;5007348;28;20181;-89
2021/01/07 03:56:43;;;;;;;36.30;24.00;;;1.80;99.90;;;;;;5024517;28;20255;-89
2021/01/07 03:59:09;;;;;;;35.70;25.07;;;1.80;99.90;;;;;;5007303;28;20185;-89
2021/01/07 04:01:35;;;;;;;34.70;23.53;;;1.80;99.90;;;;;;5024471;28;20186;-88
2021/01/07 04:04:00;;;;;;;36.17;25.53;;;1.80;99.90;;;;;;5024886;28;20189;-89
2021/01/07 04:06:26;;;;;;;37.73;27.20;;;1.70;99.90;;;;;;4990775;28;20216;-89
2021/01/07 04:08:52;;;;;;;35.23;24.10;;;1.70;99.90;;;;;;5006545;28;20284;-89
2021/01/07 04:11:17;;;;;;;41.63;25.27;;;1.70;99.90;;;;;;5007241;28;20186;-89
2021/01/07 04:13:43;;;;;;;32.00;23.60;;;1.70;99.90;;;;;;5006674;28;20269;-89
2021/01/07 04:16:09;;;;;;;32.93;23.40;;;1.80;99.90;;;;;;5005855;28;20246;-89
2021/01/07 04:18:34;;;;;;;37.60;24.07;;;1.90;99.90;;;;;;5024258;28;20230;-89
2021/01/07 04:21:02;;;;;;;38.53;24.47;;;1.80;99.90;;;;;;5025255;28;20190;-89
2021/01/07 04:23:28;;;;;;;39.27;24.37;;;1.80;99.90;;;;;;5023510;28;20174;-89
2021/01/07 04:25:54;;;;;;;38.57;25.33;;;1.80;99.90;;;;;;5012330;28;20225;-89
2021/01/07 04:28:19;;;;;;;34.20;23.37;;;1.80;99.90;;;;;;5023066;28;20557;-89
2021/01/07 04:30:45;;;;;;;34.77;23.30;;;1.90;99.90;;;;;;5024035;28;20182;-89
2021/01/07 04:33:12;;;;;;;32.77;23.10;;;1.90;99.90;;;;;;5028125;28;20178;-90
2021/01/07 04:35:37;;;;;;;41.73;25.17;;;1.80;99.90;;;;;;5027463;28;20190;-89
2021/01/07 04:38:03;;;;;;;38.10;25.27;;;1.70;99.90;;;;;;5026005;28;20182;-89
2021/01/07 04:40:29;;;;;;;34.47;23.57;;;1.80;99.90;;;;;;5026596;28;20193;-89
2021/01/07 04:42:56;;;;;;;37.90;24.43;;;1.90;99.90;;;;;;5028123;28;20192;-89
2021/01/07 04:45:22;;;;;;;39.63;24.37;;;1.80;99.90;;;;;;5029199;28;20201;-88
2021/01/07 04:47:51;;;;;;;33.93;23.70;;;1.80;99.90;;;;;;5028390;28;20593;-89
2021/01/07 04:50:17;;;;;;;39.30;24.60;;;1.80;99.90;;;;;;5027429;28;20690;-88
2021/01/07 04:52:43;;;;;;;36.50;23.87;;;1.80;99.90;;;;;;5027281;28;20181;-89
2021/01/07 04:55:11;;;;;;;37.90;23.67;;;1.70;99.90;;;;;;5027961;28;20198;-89
2021/01/07 04:57:36;;;;;;;36.50;22.67;;;1.80;99.90;;;;;;5027297;28;20201;-89
2021/01/07 05:00:07;;;;;;;38.27;24.60;;;1.90;99.90;;;;;;5028917;28;20641;-88
2021/01/07 05:02:33;;;;;;;40.57;25.47;;;1.90;99.90;;;;;;5028415;28;20177;-88
2021/01/07 05:05:00;;;;;;;36.20;23.77;;;1.80;99.90;;;;;;5027675;28;20213;-89
2021/01/07 05:07:26;;;;;;;35.63;23.70;;;1.80;99.90;;;;;;5027571;28;20201;-89
2021/01/07 05:10:06;;;;;;;31.47;22.40;;;1.90;99.90;;;;;;5027930;28;20197;-89
2021/01/07 05:12:32;;;;;;;33.20;21.73;;;2.00;99.90;;;;;;5028414;28;20237;-89
2021/01/07 05:14:58;;;;;;;35.83;23.07;;;1.90;99.90;;;;;;5012446;28;20185;-89
2021/01/07 05:17:24;;;;;;;31.87;22.00;;;2.00;99.90;;;;;;5028927;28;20212;-89
2021/01/07 05:19:50;;;;;;;36.07;23.40;;;2.00;99.90;;;;;;5027271;28;20189;-89
2021/01/07 05:22:15;;;;;;;36.70;23.30;;;1.90;99.90;;;;;;5027258;28;20236;-89
2021/01/07 05:24:42;;;;;;;33.93;22.63;;;1.90;99.90;;;;;;5027679;28;20178;-88
2021/01/07 05:27:10;;;;;;;33.50;22.77;;;1.80;99.90;;;;;;5009180;28;20198;-89
2021/01/07 05:29:40;;;;;;;38.03;24.60;;;1.80;99.90;;;;;;5026133;28;20758;-89
2021/01/07 05:32:07;;;;;;;35.20;23.87;;;1.80;99.90;;;;;;5027413;28;20178;-89
2021/01/07 05:34:45;;;;;;;32.60;23.20;;;1.90;99.90;;;;;;5027520;28;20260;-88
2021/01/07 05:37:16;;;;;;;31.80;22.77;;;1.90;99.90;;;;;;5027562;28;20182;-89
2021/01/07 05:39:52;;;;;;;35.07;22.60;;;1.90;99.90;;;;;;5026160;28;20236;-89
2021/01/07 05:42:17;;;;;;;31.23;20.50;;;1.90;99.90;;;;;;5027132;28;20170;-89
2021/01/07 05:44:47;;;;;;;31.97;21.67;;;2.00;99.90;;;;;;5026980;28;20220;-89
2021/01/07 05:47:30;;;;;;;33.07;21.37;;;2.10;99.90;;;;;;5042052;28;20256;-89
2021/01/07 05:49:57;;;;;;;33.93;21.90;;;2.00;99.90;;;;;;5026544;28;20193;-89
2021/01/07 05:52:28;;;;;;;36.57;22.03;;;2.00;99.90;;;;;;5026138;28;20205;-89
2021/01/07 05:54:54;;;;;;;33.53;21.10;;;2.00;99.90;;;;;;5023808;28;20174;-89
2021/01/07 05:57:22;;;;;;;35.00;22.20;;;2.00;99.90;;;;;;5024825;28;20245;-89
2021/01/07 05:59:48;;;;;;;35.03;22.63;;;1.90;99.90;;;;;;5025717;28;20653;-89
2021/01/07 06:02:18;;;;;;;33.87;22.40;;;1.90;99.90;;;;;;5025505;28;20170;-89
2021/01/07 06:04:47;;;;;;;29.90;21.93;;;2.00;99.90;;;;;;5008192;28;20186;-89
2021/01/07 06:07:15;;;;;;;31.40;19.97;;;2.00;99.90;;;;;;5024895;28;20231;-89
2021/01/07 06:09:45;;;;;;;32.20;21.70;;;2.00;99.90;;;;;;5024790;28;20633;-89
2021/01/07 06:12:12;;;;;;;33.60;20.97;;;2.20;99.90;;;;;;5023000;28;20208;-89
2021/01/07 06:14:41;;;;;;;29.37;21.93;;;2.00;99.90;;;;;;5023891;28;20618;-89
2021/01/07 06:17:07;;;;;;;32.50;21.60;;;1.90;99.90;;;;;;5024641;28;20208;-88
2021/01/07 06:19:36;;;;;;;31.37;21.50;;;2.00;99.90;;;;;;5025544;28;20178;-88
2021/01/07 06:22:17;;;;;;;29.97;20.93;;;2.00;99.90;;;;;;5025786;28;20205;-88
2021/01/07 06:24:45;;;;;;;32.83;22.20;;;2.00;99.90;;;;;;5023736;28;20186;-88
2021/01/07 06:27:30;;;;;;;29.43;20.03;;;2.00;99.90;;;;;;5023470;28;20217;-88
2021/01/07 06:30:11;;;;;;;32.40;21.73;;;2.10;99.90;;;;;;5020609;28;20687;-88
2021/01/07 06:32:40;;;;;;;32.93;21.10;;;2.00;99.90;;;;;;5001425;28;20181;-88
2021/01/07 06:35:11;;;;;;;33.07;22.77;;;2.00;99.90;;;;;;5005890;28;20688;-88
2021/01/07 06:37:42;;;;;;;27.20;19.77;;;2.10;99.90;;;;;;5030756;28;20240;-88
2021/01/07 06:40:12;;;;;;;29.63;21.70;;;2.10;99.90;;;;;;5039494;28;20165;-88
2021/01/07 06:42:40;;;;;;;31.47;21.83;;;2.20;99.90;;;;;;5022825;28;20196;-88
2021/01/07 06:45:07;;;;;;;27.73;19.90;;;2.10;99.90;;;;;;5036111;28;20200;-88
2021/01/07 06:47:33;;;;;;;29.70;20.73;;;2.10;99.90;;;;;;5039918;28;20179;-88
2021/01/07 06:50:00;;;;;;;32.97;21.70;;;2.10;99.90;;;;;;5035316;28;20206;-88
2021/01/07 06:52:26;;;;;;;33.43;21.77;;;2.00;99.90;;;;;;5020733;28;20169;-88
2021/01/07 06:54:56;;;;;;;32.43;21.60;;;2.10;99.90;;;;;;5020106;28;20178;-88
2021/01/07 06:57:22;;;;;;;34.63;22.73;;;2.00;99.90;;;;;;5004209;28;20544;-88
2021/01/07 06:59:59;;;;;;;33.43;23.03;;;2.00;99.90;;;;;;5003609;28;20197;-88
2021/01/07 07:02:25;;;;;;;32.17;21.40;;;2.00;99.90;;;;;;5002952;28;20181;-88
2021/01/07 07:05:03;;;;;;;32.57;22.23;;;1.90;99.90;;;;;;5028800;28;20561;-88
2021/01/07 07:07:37;;;;;;;38.17;24.00;;;1.80;99.90;;;;;;5032705;28;20185;-87
2021/01/07 07:10:18;;;;;;;36.10;23.10;;;1.80;99.90;;;;;;5018995;28;20231;-87
2021/01/07 07:12:51;;;;;;;35.17;22.93;;;1.90;99.90;;;;;;5019430;28;20253;-87
2021/01/07 07:15:17;;;;;;;34.77;22.77;;;1.90;99.90;;;;;;5020007;28;20198;-87
2021/01/07 07:17:46;;;;;;;33.50;21.30;;;1.80;99.90;;;;;;5020723;28;20193;-87
2021/01/07 07:20:22;;;;;;;30.97;21.30;;;1.90;99.90;;;;;;5021702;28;20182;-87
2021/01/07 07:22:48;;;;;;;30.63;20.80;;;2.00;99.90;;;;;;5021520;28;20166;-87
2021/01/07 07:25:22;;;;;;;28.77;20.37;;;1.90;99.90;;;;;;5020826;28;20367;-88
2021/01/07 07:27:53;;;;;;;32.03;21.40;;;1.90;99.90;;;;;;5019984;28;20177;-88
2021/01/07 07:30:29;;;;;;;31.27;22.17;;;2.00;99.90;;;;;;5019450;28;20201;-87
2021/01/07 07:32:56;;;;;;;30.87;20.03;;;1.90;99.90;;;;;;5020154;28;20180;-87
2021/01/07 07:35:27;;;;;;;31.83;21.10;;;1.80;99.90;;;;;;5019822;28;20208;-87
2021/01/07 07:37:54;;;;;;;34.67;22.43;;;1.80;99.90;;;;;;5020683;28;20181;-88
2021/01/07 07:40:37;;;;;;;29.57;19.47;;;1.90;99.90;;;;;;5020505;28;20170;-88
2021/01/07 07:43:04;;;;;;;31.93;20.20;;;2.00;99.90;;;;;;5020185;28;20177;-87
2021/01/07 07:45:32;;;;;;;29.80;20.27;;;2.10;99.90;;;;;;5019413;28;20204;-88
2021/01/07 07:48:00;;;;;;;28.70;20.53;;;2.00;99.90;;;;;;5019258;28;20177;-87
2021/01/07 07:50:28;;;;;;;31.07;21.17;;;1.90;99.90;;;;;;5021390;28;20245;-87
2021/01/07 07:53:04;;;;;;;30.60;21.43;;;1.80;99.90;;;;;;5020365;28;20184;-86
2021/01/07 07:55:41;;;;;;;34.40;22.13;;;1.90;99.90;;;;;;5000977;28;20198;-88
2021/01/07 07:58:19;;;;;;;32.97;21.17;;;1.70;99.90;;;;;;5000434;28;20182;-88
2021/01/07 08:00:50;;;;;;;33.67;21.23;;;1.70;99.90;;;;;;5002773;28;20181;-87
2021/01/07 08:03:29;;;;;;;32.67;21.17;;;1.80;99.90;;;;;;4999251;28;20189;-87
2021/01/07 08:05:58;;;;;;;32.00;21.47;;;1.80;99.90;;;;;;5019086;28;20212;-87
2021/01/07 08:08:29;;;;;;;31.23;20.90;;;1.80;99.90;;;;;;5017600;28;20676;-87
2021/01/07 08:10:56;;;;;;;29.70;19.80;;;1.80;99.90;;;;;;5017567;28;20282;-87
2021/01/07 08:13:24;;;;;;;27.90;20.53;;;1.80;99.90;;;;;;5017017;28;20189;-88
2021/01/07 08:15:59;;;;;;;30.13;21.27;;;1.90;99.90;;;;;;5014652;28;20413;-87
2021/01/07 08:18:28;;;;;;;30.30;20.63;;;1.90;99.90;;;;;;5014744;28;20595;-88
2021/01/07 08:21:06;;;;;;;30.40;20.47;;;1.90;99.90;;;;;;5012622;28;20181;-87
2021/01/07 08:23:32;;;;;;;30.23;20.80;;;1.90;99.90;;;;;;4999662;28;20190;-88
2021/01/07 08:26:00;;;;;;;28.77;20.37;;;1.90;99.90;;;;;;5012348;28;20235;-87
2021/01/07 08:28:44;;;;;;;29.07;20.67;;;2.00;99.90;;;;;;5016467;28;20205;-88
2021/01/07 08:31:23;;;;;;;29.87;20.70;;;2.00;99.90;;;;;;5012095;28;20186;-88
2021/01/07 08:33:51;;;;;;;28.10;19.77;;;1.90;99.90;;;;;;5015945;28;20181;-88
2021/01/07 08:36:21;;;;;;;29.27;19.40;;;1.80;99.90;;;;;;5015961;28;20232;-88
2021/01/07 08:38:51;;;;;;;27.70;19.90;;;1.80;99.90;;;;;;5013767;28;20294;-87
2021/01/07 08:41:24;;;;;;;26.97;19.53;;;1.80;99.90;;;;;;4987657;28;20258;-88
2021/01/07 08:43:53;;;;;;;31.40;20.87;;;1.90;99.90;;;;;;5004125;28;20189;-87
2021/01/07 08:46:26;;;;;;;30.87;21.27;;;1.80;99.90;;;;;;5014975;28;20205;-87
2021/01/07 08:49:02;;;;;;;29.70;20.23;;;1.90;99.90;;;;;;5014809;28;20260;-87
2021/01/07 08:51:39;;;;;;;26.60;19.03;;;2.10;99.90;;;;;;5014035;28;20992;-87
2021/01/07 08:54:18;;;;;;;26.63;19.00;;;2.10;99.90;;;;;;5015665;28;20184;-87
2021/01/07 08:56:45;;;;;;;30.47;20.80;;;2.10;99.90;;;;;;5015175;28;20206;-86
2021/01/07 08:59:27;;;;;;;30.80;21.23;;;2.00;99.90;;;;;;5013411;28;20205;-87
2021/01/07 09:02:02;;;;;;;26.97;19.93;;;2.00;99.90;;;;;;5015419;28;20193;-87
2021/01/07 09:04:35;;;;;;;30.43;21.17;;;2.00;99.90;;;;;;5008526;28;20194;-87
2021/01/07 09:07:02;;;;;;;28.10;19.63;;;2.00;99.90;;;;;;5009924;28;20294;-87
2021/01/07 09:09:41;;;;;;;27.90;19.50;;;2.10;99.90;;;;;;5015039;28;20224;-87
2021/01/07 09:12:14;;;;;;;30.53;20.50;;;2.00;99.90;;;;;;5016227;28;20193;-88
2021/01/07 09:14:42;;;;;;;31.70;20.87;;;2.00;99.90;;;;;;5000034;28;20244;-88
2021/01/07 09:17:08;;;;;;;30.30;20.40;;;2.00;99.90;;;;;;5017146;28;20284;-88
2021/01/07 09:19:34;;;;;;;29.23;20.60;;;2.10;99.90;;;;;;5020335;28;20221;-88
2021/01/07 09:22:01;;;;;;;33.43;21.23;;;2.10;99.90;;;;;;5018730;28;20622;-88
2021/01/07 09:24:37;;;;;;;30.30;20.33;;;2.20;99.90;;;;;;5021061;28;20185;-88
2021/01/07 09:27:15;;;;;;;31.60;20.60;;;2.20;99.80;;;;;;5021827;28;20235;-87
2021/01/07 09:29:41;;;;;;;31.33;21.03;;;2.20;99.90;;;;;;5022613;28;20263;-88
2021/01/07 09:32:09;;;;;;;32.07;22.13;;;2.20;99.90;;;;;;4997738;28;20185;-88
2021/01/07 09:34:36;;;;;;;30.63;21.43;;;2.10;99.90;;;;;;4999846;28;20186;-88
2021/01/07 09:37:10;;;;;;;35.37;21.87;;;2.10;99.90;;;;;;5021552;28;20371;-88
2021/01/07 09:39:36;;;;;;;31.80;21.10;;;2.20;99.90;;;;;;5020595;28;20215;-88
2021/01/07 09:42:04;;;;;;;31.03;21.13;;;2.20;99.90;;;;;;5018913;28;20190;-88
2021/01/07 09:44:29;;;;;;;29.17;21.37;;;2.10;99.90;;;;;;5020567;28;20192;-88
2021/01/07 09:46:57;;;;;;;32.07;20.93;;;2.20;99.90;;;;;;5020660;28;20300;-88
2021/01/07 09:49:24;;;;;;;28.80;20.80;;;2.20;99.90;;;;;;4993377;28;20213;-88
2021/01/07 09:51:54;;;;;;;29.90;20.73;;;2.30;99.90;;;;;;5011234;28;20200;-87
2021/01/07 09:54:22;;;;;;;28.40;19.57;;;2.40;99.90;;;;;;5022029;28;20189;-87
2021/01/07 09:56:53;;;;;;;31.07;21.70;;;2.50;99.40;;;;;;5023057;28;20197;-87
2021/01/07 09:59:23;;;;;;;31.97;20.83;;;2.50;99.50;;;;;;5023578;28;20193;-87
2021/01/07 10:02:00;;;;;;;30.17;21.20;;;2.40;99.50;;;;;;5024611;28;20186;-87
2021/01/07 10:04:27;;;;;;;26.97;19.23;;;2.50;99.30;;;;;;5024028;28;20617;-87
2021/01/07 10:06:52;;;;;;;30.47;19.67;;;2.60;96.90;;;;;;5021798;28;20209;-87
2021/01/07 10:09:18;;;;;;;32.47;19.87;;;2.50;98.30;;;;;;5024987;28;20212;-86
2021/01/07 10:11:51;;;;;;;25.53;18.67;;;2.50;98.20;;;;;;5013649;28;20253;-88
2021/01/07 10:14:18;;;;;;;28.70;19.27;;;2.50;99.80;;;;;;5012426;28;20277;-87
2021/01/07 10:17:00;;;;;;;30.90;20.33;;;2.60;97.60;;;;;;5011939;28;20210;-88
2021/01/07 10:19:38;;;;;;;30.20;19.97;;;2.60;97.70;;;;;;5021546;28;20189;-88
2021/01/07 10:22:09;;;;;;;25.87;19.53;;;2.70;98.20;;;;;;5011205;28;20173;-88
2021/01/07 10:24:42;;;;;;;27.23;19.67;;;2.70;97.80;;;;;;5023013;28;20217;-87
2021/01/07 10:27:12;;;;;;;26.00;19.17;;;2.60;96.90;;;;;;5027110;28;20225;-88
2021/01/07 10:29:39;;;;;;;25.27;17.77;;;2.70;95.60;;;;;;5009580;28;20209;-88
2021/01/07 10:32:16;;;;;;;26.43;17.53;;;2.80;94.70;;;;;;5019742;28;20683;-89
2021/01/07 10:34:46;;;;;;;24.57;17.83;;;2.90;94.80;;;;;;5027028;28;20253;-88
2021/01/07 10:37:14;;;;;;;26.23;17.40;;;2.90;93.80;;;;;;5031827;28;20570;-88
2021/01/07 10:39:42;;;;;;;24.83;17.40;;;3.00;94.10;;;;;;5017496;28;20571;-87
2021/01/07 10:42:14;;;;;;;25.40;17.57;;;3.00;94.10;;;;;;5034811;28;20185;-88
2021/01/07 10:44:42;;;;;;;27.13;17.87;;;3.00;93.70;;;;;;5024497;28;20213;-87
2021/01/07 10:47:09;;;;;;;25.67;16.93;;;2.90;94.90;;;;;;5025742;28;20346;-87
2021/01/07 10:49:37;;;;;;;25.07;17.10;;;3.00;91.70;;;;;;5030745;28;20293;-86
2021/01/07 10:52:12;;;;;;;25.87;18.70;;;2.90;93.40;;;;;;5032267;28;20209;-88
2021/01/07 10:54:50;;;;;;;25.30;17.63;;;2.90;94.10;;;;;;5021976;28;20300;-87
2021/01/07 10:57:51;;;;;;;24.67;18.23;;;3.00;93.70;;;;;;5023004;28;20190;-87
2021/01/07 11:00:27;;;;;;;23.50;17.50;;;2.90;94.50;;;;;;5032468;28;20198;-88
2021/01/07 11:03:38;;;;;;;24.60;18.07;;;2.90;93.10;;;;;;5032532;28;20185;-88
2021/01/07 11:06:07;;;;;;;23.60;16.43;;;3.00;93.50;;;;;;5029200;28;20675;-87
2021/01/07 11:08:58;;;;;;;23.73;18.07;;;3.00;92.90;;;;;;5027125;28;20224;-88
2021/01/07 11:11:44;;;;;;;23.73;17.17;;;3.00;92.60;;;;;;5011495;28;20192;-88
2021/01/07 11:14:22;;;;;;;25.40;17.67;;;3.10;92.80;;;;;;5023967;28;20203;-87
2021/01/07 11:16:52;;;;;;;24.97;17.33;;;3.30;92.80;;;;;;5031113;28;20236;-88
2021/01/07 11:19:25;;;;;;;27.17;18.20;;;3.30;92.90;;;;;;5013147;28;20660;-87
2021/01/07 11:22:17;;;;;;;24.23;17.50;;;3.20;93.70;;;;;;5029558;28;20189;-87
2021/01/07 11:24:46;;;;;;;23.87;18.07;;;3.20;90.50;;;;;;5029188;28;20189;-87
2021/01/07 11:27:12;;;;;;;24.27;17.83;;;3.30;90.90;;;;;;5023444;28;20277;-87
2021/01/07 11:29:42;;;;;;;24.73;17.97;;;3.20;92.80;;;;;;5023863;28;20229;-87
2021/01/07 11:32:08;;;;;;;23.87;17.13;;;3.10;93.00;;;;;;5010240;28;20190;-87
2021/01/07 11:34:34;;;;;;;23.00;17.13;;;3.10;92.10;;;;;;5006126;28;20206;-87
2021/01/07 11:39:37;;;;;;;22.53;17.10;;;3.10;91.30;;;;;;5035302;28;20217;-90
2021/01/07 11:42:37;;;;;;;22.13;16.93;;;3.10;91.00;;;;;;5042978;28;20196;-89
2021/01/07 11:45:08;;;;;;;23.73;16.33;;;3.30;89.80;;;;;;5028894;28;20266;-89
2021/01/07 11:47:44;;;;;;;23.07;16.40;;;3.10;88.60;;;;;;5017963;28;20217;-89
2021/01/07 11:50:13;;;;;;;24.80;17.77;;;3.10;90.30;;;;;;5024395;28;20201;-90
2021/01/07 11:52:40;;;;;;;21.20;15.77;;;3.00;90.70;;;;;;5016168;28;20248;-90
2021/01/07 11:55:10;;;;;;;23.70;17.00;;;3.00;90.40;;;;;;5035623;28;20192;-89
2021/01/07 11:57:38;;;;;;;23.83;16.33;;;3.10;90.30;;;;;;5039235;28;20228;-89
2021/01/07 12:00:04;;;;;;;20.47;14.37;;;3.20;90.70;;;;;;5034050;28;20193;-90
2021/01/07 12:02:31;;;;;;;21.70;15.60;;;3.40;88.20;;;;;;5016080;28;20181;-90
2021/01/07 12:04:59;;;;;;;22.30;15.50;;;3.50;87.80;;;;;;5035796;28;20197;-91
2021/01/07 12:07:55;;;;;;;19.47;14.70;;;3.60;88.00;;;;;;5030511;28;20205;-91
2021/01/07 12:10:22;;;;;;;23.37;15.17;;;3.60;85.20;;;;;;5032587;28;20186;-90
2021/01/07 12:13:06;;;;;;;25.20;16.27;;;3.30;87.10;;;;;;5031208;28;20180;-90
2021/01/07 12:15:35;;;;;;;21.57;15.97;;;3.40;88.20;;;;;;5004373;28;20173;-90
2021/01/07 12:18:06;;;;;;;37.37;26.50;;;3.50;88.30;;;;;;5031136;28;20243;-92
2021/01/07 12:20:35;;;;;;;20.37;15.10;;;3.60;88.90;;;;;;4979168;28;20189;-91
2021/01/07 12:23:02;;;;;;;23.13;16.90;;;3.70;85.70;;;;;;5035175;28;20190;-91
2021/01/07 12:25:30;;;;;;;22.60;15.43;;;3.50;88.70;;;;;;5035704;28;20185;-91
2021/01/07 12:27:56;;;;;;;21.70;15.43;;;3.50;88.70;;;;;;5028564;28;20205;-91
2021/01/07 12:30:23;;;;;;;22.53;16.20;;;3.50;87.90;;;;;;5029887;28;20189;-91
2021/01/07 12:33:17;;;;;;;25.27;17.20;;;3.50;88.50;;;;;;4995582;28;20181;-91
2021/01/07 12:35:52;;;;;;;23.60;17.10;;;3.50;89.00;;;;;;5008066;28;20213;-90
2021/01/07 12:38:45;;;;;;;24.87;16.10;;;3.50;89.00;;;;;;5004048;28;20232;-91
2021/01/07 12:41:17;;;;;;;23.27;15.40;;;3.40;90.20;;;;;;5008437;28;20656;-91
2021/01/07 12:43:46;;;;;;;26.00;18.23;;;3.50;90.10;;;;;;5012635;28;20191;-90
2021/01/07 12:46:18;;;;;;;22.97;16.67;;;3.50;90.40;;;;;;5012948;28;20190;-91
2021/01/07 12:48:44;;;;;;;23.97;16.93;;;3.50;89.30;;;;;;5011425;28;20263;-90